Terminal Aerodrome Forecast
Issued by NWS

Home | Current Version | Previous Version | Text Only | Print | Product List | Glossary On
Versions: 1 2 3 4 5 6 7 8 9 10 11 12 13 14 15 16 17 18
862
FTUS43 KIND 290659 AAA
TAFLAF
TAF AMD
KLAF 290659Z 2907/3006 00000KT 1SM BR BKN250
      TEMPO 2907/2911 1/4SM FG BKN100
     FM291300 00000KT 4SM BR BKN015
     FM291700 VRB04KT P6SM BKN050
      AMD LTD TO CLD VIS AND WIND TIL 291300=

USA.gov is the U.S. government's official web portal to all federal, state and local government web resources and services.